sensor_id;sensor_type;location;lat;lon;timestamp;P1;durP1;ratioP1;P2;durP2;ratioP2
40745;SDS011;26454;51.164;4.488;2023-07-31T00:01:48;18.17;;;6.72;;
40745;SDS011;26454;51.164;4.488;2023-07-31T00:04:23;20.05;;;7.32;;
40745;SDS011;26454;51.164;4.488;2023-07-31T00:06:55;18.15;;;6.40;;
40745;SDS011;26454;51.164;4.488;2023-07-31T00:09:34;20.92;;;9.02;;
40745;SDS011;26454;51.164;4.488;2023-07-31T00:12:01;16.92;;;7.90;;
40745;SDS011;26454;51.164;4.488;2023-07-31T00:14:32;21.23;;;8.75;;
40745;SDS011;26454;51.164;4.488;2023-07-31T00:16:59;17.08;;;8.15;;
40745;SDS011;26454;51.164;4.488;2023-07-31T00:19:27;22.38;;;7.72;;
40745;SDS011;26454;51.164;4.488;2023-07-31T00:21:55;24.40;;;7.30;;
40745;SDS011;26454;51.164;4.488;2023-07-31T00:24:21;18.90;;;7.55;;
40745;SDS011;26454;51.164;4.488;2023-07-31T00:26:48;17.42;;;7.22;;
40745;SDS011;26454;51.164;4.488;2023-07-31T00:29:28;18.63;;;8.57;;
40745;SDS011;26454;51.164;4.488;2023-07-31T00:31:56;23.52;;;7.03;;
40745;SDS011;26454;51.164;4.488;2023-07-31T00:34:30;17.60;;;7.13;;
40745;SDS011;26454;51.164;4.488;2023-07-31T00:37:00;13.75;;;7.47;;
40745;SDS011;26454;51.164;4.488;2023-07-31T00:39:38;16.58;;;7.65;;
40745;SDS011;26454;51.164;4.488;2023-07-31T00:42:14;22.70;;;8.07;;
40745;SDS011;26454;51.164;4.488;2023-07-31T00:44:59;25.25;;;8.07;;
40745;SDS011;26454;51.164;4.488;2023-07-31T00:47:25;21.58;;;8.52;;
40745;SDS011;26454;51.164;4.488;2023-07-31T00:49:57;16.40;;;7.13;;
40745;SDS011;26454;51.164;4.488;2023-07-31T00:52:38;15.32;;;6.82;;
40745;SDS011;26454;51.164;4.488;2023-07-31T00:55:05;18.40;;;7.75;;
40745;SDS011;26454;51.164;4.488;2023-07-31T00:57:34;16.67;;;8.02;;
40745;SDS011;26454;51.164;4.488;2023-07-31T01:00:01;19.93;;;8.90;;
40745;SDS011;26454;51.164;4.488;2023-07-31T01:02:28;18.35;;;7.22;;
40745;SDS011;26454;51.164;4.488;2023-07-31T01:04:54;19.67;;;8.18;;
40745;SDS011;26454;51.164;4.488;2023-07-31T01:10:02;18.73;;;7.65;;
40745;SDS011;26454;51.164;4.488;2023-07-31T01:12:29;17.73;;;7.28;;
40745;SDS011;26454;51.164;4.488;2023-07-31T01:15:05;22.85;;;8.68;;
40745;SDS011;26454;51.164;4.488;2023-07-31T01:17:31;12.10;;;6.45;;
40745;SDS011;26454;51.164;4.488;2023-07-31T01:19:59;15.18;;;7.63;;
40745;SDS011;26454;51.164;4.488;2023-07-31T01:22:37;20.05;;;7.40;;
40745;SDS011;26454;51.164;4.488;2023-07-31T01:25:15;13.75;;;6.20;;
40745;SDS011;26454;51.164;4.488;2023-07-31T01:27:51;15.23;;;6.78;;
40745;SDS011;26454;51.164;4.488;2023-07-31T01:30:21;20.00;;;8.45;;
40745;SDS011;26454;51.164;4.488;2023-07-31T01:32:49;15.30;;;7.88;;
40745;SDS011;26454;51.164;4.488;2023-07-31T01:35:19;21.08;;;7.72;;
40745;SDS011;26454;51.164;4.488;2023-07-31T01:37:45;18.10;;;7.27;;
40745;SDS011;26454;51.164;4.488;2023-07-31T01:40:11;14.85;;;7.47;;
40745;SDS011;26454;51.164;4.488;2023-07-31T01:42:38;19.05;;;7.03;;
40745;SDS011;26454;51.164;4.488;2023-07-31T01:53:05;22.65;;;8.57;;
40745;SDS011;26454;51.164;4.488;2023-07-31T01:56:24;19.10;;;7.10;;
40745;SDS011;26454;51.164;4.488;2023-07-31T01:58:34;23.00;;;7.28;;
40745;SDS011;26454;51.164;4.488;2023-07-31T02:01:03;19.40;;;7.40;;
40745;SDS011;26454;51.164;4.488;2023-07-31T02:03:53;21.90;;;7.90;;
40745;SDS011;26454;51.164;4.488;2023-07-31T02:06:42;14.90;;;6.75;;
40745;SDS011;26454;51.164;4.488;2023-07-31T02:09:14;14.20;;;6.22;;
40745;SDS011;26454;51.164;4.488;2023-07-31T02:15:35;22.55;;;8.52;;
40745;SDS011;26454;51.164;4.488;2023-07-31T02:18:17;16.13;;;6.45;;
40745;SDS011;26454;51.164;4.488;2023-07-31T02:20:49;18.17;;;6.88;;
40745;SDS011;26454;51.164;4.488;2023-07-31T02:23:15;18.15;;;6.35;;
40745;SDS011;26454;51.164;4.488;2023-07-31T02:25:54;15.27;;;6.50;;
40745;SDS011;26454;51.164;4.488;2023-07-31T02:28:20;18.13;;;6.30;;
40745;SDS011;26454;51.164;4.488;2023-07-31T02:30:47;23.65;;;8.02;;
40745;SDS011;26454;51.164;4.488;2023-07-31T02:33:14;16.85;;;7.82;;
40745;SDS011;26454;51.164;4.488;2023-07-31T02:35:44;14.18;;;6.05;;
40745;SDS011;26454;51.164;4.488;2023-07-31T02:38:10;16.55;;;7.20;;
40745;SDS011;26454;51.164;4.488;2023-07-31T02:40:36;13.90;;;6.70;;
40745;SDS011;26454;51.164;4.488;2023-07-31T02:43:02;17.52;;;6.75;;
40745;SDS011;26454;51.164;4.488;2023-07-31T02:45:29;19.73;;;7.38;;
40745;SDS011;26454;51.164;4.488;2023-07-31T02:47:57;17.98;;;7.10;;
40745;SDS011;26454;51.164;4.488;2023-07-31T02:50:27;19.13;;;6.65;;
40745;SDS011;26454;51.164;4.488;2023-07-31T02:52:54;15.23;;;6.63;;
40745;SDS011;26454;51.164;4.488;2023-07-31T02:55:20;19.17;;;7.57;;
40745;SDS011;26454;51.164;4.488;2023-07-31T02:57:46;19.83;;;7.43;;
40745;SDS011;26454;51.164;4.488;2023-07-31T03:00:13;18.50;;;6.80;;
40745;SDS011;26454;51.164;4.488;2023-07-31T03:02:39;16.45;;;6.97;;
40745;SDS011;26454;51.164;4.488;2023-07-31T03:05:09;17.88;;;9.63;;
40745;SDS011;26454;51.164;4.488;2023-07-31T03:07:36;18.42;;;6.75;;
40745;SDS011;26454;51.164;4.488;2023-07-31T03:10:02;18.85;;;7.78;;
40745;SDS011;26454;51.164;4.488;2023-07-31T03:12:28;19.95;;;7.85;;
40745;SDS011;26454;51.164;4.488;2023-07-31T03:14:56;17.90;;;7.15;;
40745;SDS011;26454;51.164;4.488;2023-07-31T03:17:23;16.95;;;6.63;;
40745;SDS011;26454;51.164;4.488;2023-07-31T03:19:49;16.60;;;7.47;;
40745;SDS011;26454;51.164;4.488;2023-07-31T03:22:15;23.40;;;7.45;;
40745;SDS011;26454;51.164;4.488;2023-07-31T03:24:48;18.45;;;6.55;;
40745;SDS011;26454;51.164;4.488;2023-07-31T03:27:20;20.08;;;8.05;;
40745;SDS011;26454;51.164;4.488;2023-07-31T03:29:46;12.80;;;7.43;;
40745;SDS011;26454;51.164;4.488;2023-07-31T03:32:18;18.95;;;7.22;;
40745;SDS011;26454;51.164;4.488;2023-07-31T03:34:49;14.73;;;7.28;;
40745;SDS011;26454;51.164;4.488;2023-07-31T03:37:33;16.55;;;7.85;;
40745;SDS011;26454;51.164;4.488;2023-07-31T03:40:02;19.48;;;6.20;;
40745;SDS011;26454;51.164;4.488;2023-07-31T03:42:32;17.77;;;9.10;;
40745;SDS011;26454;51.164;4.488;2023-07-31T03:45:02;19.38;;;7.03;;
40745;SDS011;26454;51.164;4.488;2023-07-31T03:47:43;15.45;;;8.32;;
40745;SDS011;26454;51.164;4.488;2023-07-31T03:50:12;15.20;;;7.43;;
40745;SDS011;26454;51.164;4.488;2023-07-31T03:55:19;18.80;;;7.53;;
40745;SDS011;26454;51.164;4.488;2023-07-31T03:58:09;15.23;;;8.05;;
40745;SDS011;26454;51.164;4.488;2023-07-31T04:07:40;17.67;;;7.80;;
40745;SDS011;26454;51.164;4.488;2023-07-31T04:10:22;19.13;;;8.93;;
40745;SDS011;26454;51.164;4.488;2023-07-31T04:13:26;17.83;;;9.85;;
40745;SDS011;26454;51.164;4.488;2023-07-31T04:16:27;17.42;;;9.52;;
40745;SDS011;26454;51.164;4.488;2023-07-31T04:19:10;17.90;;;9.43;;
40745;SDS011;26454;51.164;4.488;2023-07-31T04:22:17;25.60;;;12.15;;
40745;SDS011;26454;51.164;4.488;2023-07-31T04:34:34;17.70;;;9.15;;
40745;SDS011;26454;51.164;4.488;2023-07-31T04:40:28;19.48;;;9.98;;
40745;SDS011;26454;51.164;4.488;2023-07-31T04:43:02;19.88;;;10.75;;
40745;SDS011;26454;51.164;4.488;2023-07-31T04:53:20;23.85;;;11.25;;
40745;SDS011;26454;51.164;4.488;2023-07-31T04:55:46;22.08;;;11.00;;
40745;SDS011;26454;51.164;4.488;2023-07-31T04:58:12;17.38;;;10.88;;
40745;SDS011;26454;51.164;4.488;2023-07-31T05:00:38;15.30;;;10.88;;
40745;SDS011;26454;51.164;4.488;2023-07-31T05:03:04;16.23;;;9.85;;
40745;SDS011;26454;51.164;4.488;2023-07-31T05:05:30;17.95;;;9.77;;
40745;SDS011;26454;51.164;4.488;2023-07-31T05:07:56;16.50;;;10.25;;
40745;SDS011;26454;51.164;4.488;2023-07-31T05:10:22;14.65;;;11.35;;
40745;SDS011;26454;51.164;4.488;2023-07-31T05:12:48;15.25;;;10.25;;
40745;SDS011;26454;51.164;4.488;2023-07-31T05:15:14;17.35;;;11.38;;
40745;SDS011;26454;51.164;4.488;2023-07-31T05:17:40;15.80;;;9.77;;
40745;SDS011;26454;51.164;4.488;2023-07-31T05:20:06;19.42;;;10.95;;
40745;SDS011;26454;51.164;4.488;2023-07-31T05:22:32;14.98;;;9.57;;
40745;SDS011;26454;51.164;4.488;2023-07-31T05:24:58;17.33;;;11.13;;
40745;SDS011;26454;51.164;4.488;2023-07-31T05:27:24;18.48;;;10.43;;
40745;SDS011;26454;51.164;4.488;2023-07-31T05:29:50;21.35;;;11.43;;
40745;SDS011;26454;51.164;4.488;2023-07-31T05:32:16;16.88;;;10.98;;
40745;SDS011;26454;51.164;4.488;2023-07-31T05:34:42;21.75;;;11.77;;
40745;SDS011;26454;51.164;4.488;2023-07-31T05:37:10;19.25;;;11.77;;
40745;SDS011;26454;51.164;4.488;2023-07-31T05:39:36;17.23;;;11.18;;
40745;SDS011;26454;51.164;4.488;2023-07-31T05:42:02;17.75;;;10.82;;
40745;SDS011;26454;51.164;4.488;2023-07-31T05:44:29;16.92;;;10.68;;
40745;SDS011;26454;51.164;4.488;2023-07-31T05:46:55;19.73;;;12.55;;
40745;SDS011;26454;51.164;4.488;2023-07-31T05:49:21;26.20;;;19.55;;
40745;SDS011;26454;51.164;4.488;2023-07-31T05:51:47;19.95;;;13.70;;
40745;SDS011;26454;51.164;4.488;2023-07-31T05:54:13;17.40;;;13.05;;
40745;SDS011;26454;51.164;4.488;2023-07-31T05:56:39;18.98;;;12.65;;
40745;SDS011;26454;51.164;4.488;2023-07-31T05:59:05;16.60;;;12.02;;
40745;SDS011;26454;51.164;4.488;2023-07-31T06:01:31;16.38;;;11.63;;
40745;SDS011;26454;51.164;4.488;2023-07-31T06:03:57;21.83;;;13.00;;
40745;SDS011;26454;51.164;4.488;2023-07-31T06:06:23;20.92;;;12.52;;
40745;SDS011;26454;51.164;4.488;2023-07-31T06:08:49;18.75;;;13.30;;
40745;SDS011;26454;51.164;4.488;2023-07-31T06:11:15;22.33;;;16.30;;
40745;SDS011;26454;51.164;4.488;2023-07-31T06:13:41;23.02;;;12.18;;
40745;SDS011;26454;51.164;4.488;2023-07-31T06:16:09;18.23;;;13.02;;
40745;SDS011;26454;51.164;4.488;2023-07-31T06:18:35;17.65;;;11.30;;
40745;SDS011;26454;51.164;4.488;2023-07-31T06:21:01;18.45;;;13.77;;
40745;SDS011;26454;51.164;4.488;2023-07-31T06:23:27;20.40;;;11.52;;
40745;SDS011;26454;51.164;4.488;2023-07-31T06:25:53;16.48;;;11.52;;
40745;SDS011;26454;51.164;4.488;2023-07-31T06:28:19;14.82;;;11.27;;
40745;SDS011;26454;51.164;4.488;2023-07-31T06:30:45;12.55;;;10.52;;
40745;SDS011;26454;51.164;4.488;2023-07-31T06:33:12;20.77;;;14.52;;
40745;SDS011;26454;51.164;4.488;2023-07-31T06:35:38;16.17;;;11.07;;
40745;SDS011;26454;51.164;4.488;2023-07-31T06:38:04;13.45;;;9.30;;
40745;SDS011;26454;51.164;4.488;2023-07-31T06:40:30;15.77;;;10.30;;
40745;SDS011;26454;51.164;4.488;2023-07-31T06:42:56;15.57;;;12.10;;
40745;SDS011;26454;51.164;4.488;2023-07-31T06:45:22;14.93;;;8.82;;
40745;SDS011;26454;51.164;4.488;2023-07-31T06:47:48;13.40;;;9.32;;
40745;SDS011;26454;51.164;4.488;2023-07-31T06:50:14;16.23;;;10.07;;
40745;SDS011;26454;51.164;4.488;2023-07-31T06:52:40;10.85;;;7.93;;
40745;SDS011;26454;51.164;4.488;2023-07-31T06:57:43;16.98;;;8.98;;
40745;SDS011;26454;51.164;4.488;2023-07-31T07:00:09;13.57;;;7.53;;
40745;SDS011;26454;51.164;4.488;2023-07-31T07:02:36;21.58;;;17.70;;
40745;SDS011;26454;51.164;4.488;2023-07-31T07:05:02;14.52;;;8.50;;
40745;SDS011;26454;51.164;4.488;2023-07-31T07:07:28;15.95;;;9.32;;
40745;SDS011;26454;51.164;4.488;2023-07-31T07:09:54;13.95;;;8.85;;
40745;SDS011;26454;51.164;4.488;2023-07-31T07:12:20;16.95;;;10.85;;
40745;SDS011;26454;51.164;4.488;2023-07-31T07:14:46;18.45;;;14.68;;
40745;SDS011;26454;51.164;4.488;2023-07-31T07:17:13;13.20;;;8.20;;
40745;SDS011;26454;51.164;4.488;2023-07-31T07:19:40;19.83;;;9.20;;
40745;SDS011;26454;51.164;4.488;2023-07-31T07:22:07;13.25;;;10.05;;
40745;SDS011;26454;51.164;4.488;2023-07-31T07:24:33;11.82;;;9.10;;
40745;SDS011;26454;51.164;4.488;2023-07-31T07:26:59;14.38;;;8.60;;
40745;SDS011;26454;51.164;4.488;2023-07-31T07:29:25;13.43;;;8.48;;
40745;SDS011;26454;51.164;4.488;2023-07-31T07:31:51;17.05;;;14.00;;
40745;SDS011;26454;51.164;4.488;2023-07-31T07:34:17;15.52;;;9.80;;
40745;SDS011;26454;51.164;4.488;2023-07-31T07:36:43;13.43;;;7.85;;
40745;SDS011;26454;51.164;4.488;2023-07-31T07:39:10;12.18;;;7.80;;
40745;SDS011;26454;51.164;4.488;2023-07-31T07:41:36;13.07;;;8.05;;
40745;SDS011;26454;51.164;4.488;2023-07-31T07:44:02;11.23;;;7.75;;
40745;SDS011;26454;51.164;4.488;2023-07-31T07:46:28;13.25;;;10.68;;
40745;SDS011;26454;51.164;4.488;2023-07-31T07:48:54;11.90;;;9.68;;
40745;SDS011;26454;51.164;4.488;2023-07-31T07:51:20;13.65;;;8.63;;
40745;SDS011;26454;51.164;4.488;2023-07-31T07:53:46;14.45;;;7.53;;
40745;SDS011;26454;51.164;4.488;2023-07-31T07:56:12;12.85;;;7.35;;
40745;SDS011;26454;51.164;4.488;2023-07-31T07:58:38;11.13;;;7.28;;
40745;SDS011;26454;51.164;4.488;2023-07-31T08:01:04;10.85;;;7.50;;
40745;SDS011;26454;51.164;4.488;2023-07-31T08:03:30;13.75;;;9.70;;
40745;SDS011;26454;51.164;4.488;2023-07-31T08:05:58;9.90;;;7.28;;
40745;SDS011;26454;51.164;4.488;2023-07-31T08:08:24;10.93;;;5.65;;
40745;SDS011;26454;51.164;4.488;2023-07-31T08:10:50;9.93;;;6.82;;
40745;SDS011;26454;51.164;4.488;2023-07-31T08:13:16;9.80;;;5.57;;
40745;SDS011;26454;51.164;4.488;2023-07-31T08:15:42;6.63;;;4.88;;
40745;SDS011;26454;51.164;4.488;2023-07-31T08:18:08;8.50;;;5.70;;
40745;SDS011;26454;51.164;4.488;2023-07-31T08:20:34;9.10;;;5.80;;
40745;SDS011;26454;51.164;4.488;2023-07-31T08:23:03;8.07;;;7.07;;
40745;SDS011;26454;51.164;4.488;2023-07-31T08:25:29;13.27;;;6.85;;
40745;SDS011;26454;51.164;4.488;2023-07-31T08:27:55;9.75;;;5.07;;
40745;SDS011;26454;51.164;4.488;2023-07-31T08:30:22;12.63;;;11.40;;
40745;SDS011;26454;51.164;4.488;2023-07-31T08:32:48;8.82;;;5.65;;
40745;SDS011;26454;51.164;4.488;2023-07-31T08:35:15;12.07;;;6.97;;
40745;SDS011;26454;51.164;4.488;2023-07-31T08:37:41;12.52;;;7.05;;
40745;SDS011;26454;51.164;4.488;2023-07-31T08:40:07;7.97;;;5.15;;
40745;SDS011;26454;51.164;4.488;2023-07-31T08:42:33;9.38;;;5.15;;
40745;SDS011;26454;51.164;4.488;2023-07-31T08:44:59;9.45;;;5.05;;
40745;SDS011;26454;51.164;4.488;2023-07-31T08:47:25;7.63;;;4.70;;
40745;SDS011;26454;51.164;4.488;2023-07-31T08:49:51;9.10;;;5.03;;
40745;SDS011;26454;51.164;4.488;2023-07-31T08:52:18;9.30;;;4.72;;
40745;SDS011;26454;51.164;4.488;2023-07-31T08:54:44;9.00;;;4.78;;
40745;SDS011;26454;51.164;4.488;2023-07-31T08:57:10;7.70;;;4.90;;
40745;SDS011;26454;51.164;4.488;2023-07-31T08:59:37;10.05;;;7.20;;
40745;SDS011;26454;51.164;4.488;2023-07-31T09:02:05;6.50;;;4.53;;
40745;SDS011;26454;51.164;4.488;2023-07-31T09:04:32;11.25;;;4.03;;
40745;SDS011;26454;51.164;4.488;2023-07-31T09:06:59;9.23;;;5.93;;
40745;SDS011;26454;51.164;4.488;2023-07-31T09:09:26;5.70;;;4.35;;
40745;SDS011;26454;51.164;4.488;2023-07-31T09:11:52;6.40;;;4.30;;
40745;SDS011;26454;51.164;4.488;2023-07-31T09:14:18;10.23;;;4.40;;
40745;SDS011;26454;51.164;4.488;2023-07-31T09:19:24;10.13;;;4.38;;
40745;SDS011;26454;51.164;4.488;2023-07-31T09:21:51;7.45;;;4.50;;
40745;SDS011;26454;51.164;4.488;2023-07-31T09:24:25;6.40;;;4.00;;
40745;SDS011;26454;51.164;4.488;2023-07-31T09:26:53;7.45;;;4.85;;
40745;SDS011;26454;51.164;4.488;2023-07-31T09:29:19;7.15;;;4.45;;
40745;SDS011;26454;51.164;4.488;2023-07-31T09:31:46;5.95;;;4.25;;
40745;SDS011;26454;51.164;4.488;2023-07-31T09:34:12;6.35;;;5.40;;
40745;SDS011;26454;51.164;4.488;2023-07-31T09:36:40;4.97;;;4.47;;
40745;SDS011;26454;51.164;4.488;2023-07-31T09:39:07;11.73;;;8.27;;
40745;SDS011;26454;51.164;4.488;2023-07-31T09:41:38;6.78;;;4.25;;
40745;SDS011;26454;51.164;4.488;2023-07-31T09:46:30;8.18;;;5.53;;
40745;SDS011;26454;51.164;4.488;2023-07-31T09:49:06;6.75;;;4.25;;
40745;SDS011;26454;51.164;4.488;2023-07-31T09:51:34;10.02;;;4.55;;
40745;SDS011;26454;51.164;4.488;2023-07-31T09:54:03;7.15;;;4.68;;
40745;SDS011;26454;51.164;4.488;2023-07-31T09:56:29;7.82;;;4.22;;
40745;SDS011;26454;51.164;4.488;2023-07-31T09:58:56;9.75;;;5.53;;
40745;SDS011;26454;51.164;4.488;2023-07-31T10:01:22;15.27;;;13.00;;
40745;SDS011;26454;51.164;4.488;2023-07-31T10:03:48;9.15;;;6.75;;
40745;SDS011;26454;51.164;4.488;2023-07-31T10:06:15;9.68;;;5.25;;
40745;SDS011;26454;51.164;4.488;2023-07-31T10:08:44;10.10;;;5.80;;
40745;SDS011;26454;51.164;4.488;2023-07-31T10:11:11;9.13;;;5.53;;
40745;SDS011;26454;51.164;4.488;2023-07-31T10:13:39;9.35;;;8.27;;
40745;SDS011;26454;51.164;4.488;2023-07-31T10:16:06;9.77;;;7.90;;
40745;SDS011;26454;51.164;4.488;2023-07-31T10:18:32;8.20;;;5.05;;
40745;SDS011;26454;51.164;4.488;2023-07-31T10:20:59;5.78;;;4.57;;
40745;SDS011;26454;51.164;4.488;2023-07-31T10:23:25;6.95;;;5.20;;
40745;SDS011;26454;51.164;4.488;2023-07-31T10:25:52;5.13;;;4.60;;
40745;SDS011;26454;51.164;4.488;2023-07-31T10:28:19;11.88;;;5.78;;
40745;SDS011;26454;51.164;4.488;2023-07-31T10:30:46;18.83;;;17.33;;
40745;SDS011;26454;51.164;4.488;2023-07-31T10:33:12;10.48;;;9.43;;
40745;SDS011;26454;51.164;4.488;2023-07-31T10:35:38;10.18;;;6.35;;
40745;SDS011;26454;51.164;4.488;2023-07-31T10:38:09;8.48;;;5.35;;
40745;SDS011;26454;51.164;4.488;2023-07-31T10:40:36;11.68;;;6.30;;
40745;SDS011;26454;51.164;4.488;2023-07-31T10:43:02;12.68;;;11.38;;
40745;SDS011;26454;51.164;4.488;2023-07-31T10:45:36;6.13;;;5.38;;
40745;SDS011;26454;51.164;4.488;2023-07-31T10:48:03;10.35;;;6.68;;
40745;SDS011;26454;51.164;4.488;2023-07-31T10:50:31;10.88;;;6.55;;
40745;SDS011;26454;51.164;4.488;2023-07-31T10:52:58;8.68;;;6.55;;
40745;SDS011;26454;51.164;4.488;2023-07-31T10:55:36;10.40;;;7.75;;
40745;SDS011;26454;51.164;4.488;2023-07-31T10:58:06;13.55;;;9.48;;
40745;SDS011;26454;51.164;4.488;2023-07-31T11:00:32;10.77;;;7.68;;
40745;SDS011;26454;51.164;4.488;2023-07-31T11:03:01;12.48;;;7.88;;
40745;SDS011;26454;51.164;4.488;2023-07-31T11:08:09;15.20;;;13.63;;
40745;SDS011;26454;51.164;4.488;2023-07-31T11:10:35;14.60;;;10.32;;
40745;SDS011;26454;51.164;4.488;2023-07-31T11:13:03;10.55;;;8.13;;
40745;SDS011;26454;51.164;4.488;2023-07-31T11:15:29;16.23;;;14.88;;
40745;SDS011;26454;51.164;4.488;2023-07-31T11:17:55;12.63;;;8.75;;
40745;SDS011;26454;51.164;4.488;2023-07-31T11:20:23;14.82;;;7.53;;
40745;SDS011;26454;51.164;4.488;2023-07-31T11:22:49;13.48;;;8.15;;
40745;SDS011;26454;51.164;4.488;2023-07-31T11:25:16;15.88;;;7.82;;
40745;SDS011;26454;51.164;4.488;2023-07-31T11:27:42;12.35;;;7.72;;
40745;SDS011;26454;51.164;4.488;2023-07-31T11:30:08;12.70;;;7.70;;
40745;SDS011;26454;51.164;4.488;2023-07-31T11:32:36;9.90;;;6.75;;
40745;SDS011;26454;51.164;4.488;2023-07-31T11:35:02;13.35;;;9.52;;
40745;SDS011;26454;51.164;4.488;2023-07-31T11:37:38;11.85;;;6.10;;
40745;SDS011;26454;51.164;4.488;2023-07-31T11:40:04;10.90;;;6.25;;
40745;SDS011;26454;51.164;4.488;2023-07-31T11:42:30;10.00;;;6.22;;
40745;SDS011;26454;51.164;4.488;2023-07-31T11:44:56;15.32;;;6.22;;
40745;SDS011;26454;51.164;4.488;2023-07-31T11:47:22;12.05;;;6.82;;
40745;SDS011;26454;51.164;4.488;2023-07-31T11:49:51;9.77;;;6.18;;
40745;SDS011;26454;51.164;4.488;2023-07-31T11:52:17;12.73;;;7.18;;
40745;SDS011;26454;51.164;4.488;2023-07-31T11:54:45;13.60;;;7.75;;
40745;SDS011;26454;51.164;4.488;2023-07-31T11:57:12;11.50;;;6.60;;
40745;SDS011;26454;51.164;4.488;2023-07-31T11:59:38;11.73;;;6.55;;
40745;SDS011;26454;51.164;4.488;2023-07-31T12:02:04;8.32;;;6.28;;
40745;SDS011;26454;51.164;4.488;2023-07-31T12:04:30;10.45;;;6.32;;
40745;SDS011;26454;51.164;4.488;2023-07-31T12:06:56;13.07;;;9.68;;
40745;SDS011;26454;51.164;4.488;2023-07-31T12:09:25;12.82;;;7.82;;
40745;SDS011;26454;51.164;4.488;2023-07-31T12:11:51;9.57;;;6.30;;
40745;SDS011;26454;51.164;4.488;2023-07-31T12:14:21;12.63;;;7.35;;
40745;SDS011;26454;51.164;4.488;2023-07-31T12:16:47;8.48;;;6.40;;
40745;SDS011;26454;51.164;4.488;2023-07-31T12:19:13;12.25;;;9.02;;
40745;SDS011;26454;51.164;4.488;2023-07-31T12:21:39;9.90;;;6.22;;
40745;SDS011;26454;51.164;4.488;2023-07-31T12:24:05;10.35;;;7.20;;
40745;SDS011;26454;51.164;4.488;2023-07-31T12:26:34;12.60;;;5.68;;
40745;SDS011;26454;51.164;4.488;2023-07-31T12:29:00;10.73;;;6.33;;
40745;SDS011;26454;51.164;4.488;2023-07-31T12:31:27;10.68;;;6.10;;
40745;SDS011;26454;51.164;4.488;2023-07-31T12:33:54;11.38;;;6.55;;
40745;SDS011;26454;51.164;4.488;2023-07-31T12:36:22;12.65;;;7.05;;
40745;SDS011;26454;51.164;4.488;2023-07-31T12:38:50;9.13;;;6.00;;
40745;SDS011;26454;51.164;4.488;2023-07-31T12:41:16;9.73;;;6.50;;
40745;SDS011;26454;51.164;4.488;2023-07-31T12:43:43;14.90;;;7.03;;
40745;SDS011;26454;51.164;4.488;2023-07-31T12:46:09;18.45;;;6.68;;
40745;SDS011;26454;51.164;4.488;2023-07-31T12:48:35;10.80;;;6.05;;
40745;SDS011;26454;51.164;4.488;2023-07-31T12:51:02;13.18;;;6.70;;
40745;SDS011;26454;51.164;4.488;2023-07-31T12:53:28;9.60;;;6.45;;
40745;SDS011;26454;51.164;4.488;2023-07-31T12:55:54;16.85;;;6.65;;
40745;SDS011;26454;51.164;4.488;2023-07-31T12:58:20;11.77;;;6.82;;
40745;SDS011;26454;51.164;4.488;2023-07-31T13:00:46;11.30;;;6.20;;
40745;SDS011;26454;51.164;4.488;2023-07-31T13:03:12;9.15;;;6.00;;
40745;SDS011;26454;51.164;4.488;2023-07-31T13:05:38;10.60;;;5.78;;
40745;SDS011;26454;51.164;4.488;2023-07-31T13:08:05;12.50;;;6.93;;
40745;SDS011;26454;51.164;4.488;2023-07-31T13:10:31;13.18;;;5.90;;
40745;SDS011;26454;51.164;4.488;2023-07-31T13:12:57;11.52;;;7.05;;
40745;SDS011;26454;51.164;4.488;2023-07-31T13:15:23;13.07;;;5.60;;
40745;SDS011;26454;51.164;4.488;2023-07-31T13:17:49;16.48;;;7.53;;
40745;SDS011;26454;51.164;4.488;2023-07-31T13:20:15;11.80;;;5.82;;
40745;SDS011;26454;51.164;4.488;2023-07-31T13:22:41;11.52;;;6.75;;
40745;SDS011;26454;51.164;4.488;2023-07-31T13:25:07;12.60;;;11.40;;
40745;SDS011;26454;51.164;4.488;2023-07-31T13:27:34;14.48;;;7.97;;
40745;SDS011;26454;51.164;4.488;2023-07-31T13:30:00;14.93;;;8.43;;
40745;SDS011;26454;51.164;4.488;2023-07-31T13:32:26;19.25;;;17.48;;
40745;SDS011;26454;51.164;4.488;2023-07-31T13:34:52;12.45;;;7.20;;
40745;SDS011;26454;51.164;4.488;2023-07-31T13:37:18;31.38;;;29.08;;
40745;SDS011;26454;51.164;4.488;2023-07-31T13:39:44;31.58;;;29.02;;
40745;SDS011;26454;51.164;4.488;2023-07-31T13:42:10;12.20;;;10.45;;
40745;SDS011;26454;51.164;4.488;2023-07-31T13:44:38;9.68;;;6.05;;
40745;SDS011;26454;51.164;4.488;2023-07-31T13:47:04;12.75;;;8.82;;
40745;SDS011;26454;51.164;4.488;2023-07-31T13:49:30;16.00;;;6.68;;
40745;SDS011;26454;51.164;4.488;2023-07-31T13:51:57;16.27;;;14.90;;
40745;SDS011;26454;51.164;4.488;2023-07-31T13:54:23;7.35;;;6.13;;
40745;SDS011;26454;51.164;4.488;2023-07-31T13:56:51;8.02;;;7.10;;
40745;SDS011;26454;51.164;4.488;2023-07-31T13:59:17;10.50;;;9.60;;
40745;SDS011;26454;51.164;4.488;2023-07-31T14:01:43;6.82;;;6.20;;
40745;SDS011;26454;51.164;4.488;2023-07-31T14:04:10;7.35;;;4.55;;
40745;SDS011;26454;51.164;4.488;2023-07-31T14:06:36;7.90;;;4.68;;
40745;SDS011;26454;51.164;4.488;2023-07-31T14:09:02;7.78;;;5.70;;
40745;SDS011;26454;51.164;4.488;2023-07-31T14:11:30;7.80;;;7.07;;
40745;SDS011;26454;51.164;4.488;2023-07-31T14:13:56;20.83;;;19.35;;
40745;SDS011;26454;51.164;4.488;2023-07-31T14:16:23;7.82;;;3.75;;
40745;SDS011;26454;51.164;4.488;2023-07-31T14:18:49;10.60;;;9.70;;
40745;SDS011;26454;51.164;4.488;2023-07-31T14:21:15;9.95;;;9.15;;
40745;SDS011;26454;51.164;4.488;2023-07-31T14:23:41;6.88;;;4.13;;
40745;SDS011;26454;51.164;4.488;2023-07-31T14:26:07;7.65;;;4.55;;
40745;SDS011;26454;51.164;4.488;2023-07-31T14:28:33;7.72;;;4.60;;
40745;SDS011;26454;51.164;4.488;2023-07-31T14:30:59;9.07;;;8.38;;
40745;SDS011;26454;51.164;4.488;2023-07-31T14:33:25;6.32;;;4.75;;
40745;SDS011;26454;51.164;4.488;2023-07-31T14:35:51;6.60;;;5.78;;
40745;SDS011;26454;51.164;4.488;2023-07-31T14:38:18;5.97;;;5.30;;
40745;SDS011;26454;51.164;4.488;2023-07-31T14:40:44;5.78;;;5.20;;
40745;SDS011;26454;51.164;4.488;2023-07-31T14:43:10;9.68;;;8.80;;
40745;SDS011;26454;51.164;4.488;2023-07-31T14:45:36;10.00;;;6.88;;
40745;SDS011;26454;51.164;4.488;2023-07-31T14:48:02;12.00;;;6.28;;
40745;SDS011;26454;51.164;4.488;2023-07-31T14:50:28;8.00;;;7.00;;
40745;SDS011;26454;51.164;4.488;2023-07-31T14:52:54;9.32;;;7.90;;
40745;SDS011;26454;51.164;4.488;2023-07-31T14:55:20;8.75;;;5.65;;
40745;SDS011;26454;51.164;4.488;2023-07-31T14:57:46;8.10;;;5.38;;
40745;SDS011;26454;51.164;4.488;2023-07-31T15:00:12;6.38;;;5.70;;
40745;SDS011;26454;51.164;4.488;2023-07-31T15:02:38;12.48;;;10.38;;
40745;SDS011;26454;51.164;4.488;2023-07-31T15:05:04;10.65;;;8.85;;
40745;SDS011;26454;51.164;4.488;2023-07-31T15:07:31;8.85;;;7.95;;
40745;SDS011;26454;51.164;4.488;2023-07-31T15:09:57;8.80;;;6.60;;
40745;SDS011;26454;51.164;4.488;2023-07-31T15:12:23;7.15;;;6.10;;
40745;SDS011;26454;51.164;4.488;2023-07-31T15:14:49;11.43;;;7.00;;
40745;SDS011;26454;51.164;4.488;2023-07-31T15:17:16;10.63;;;7.10;;
40745;SDS011;26454;51.164;4.488;2023-07-31T15:19:42;11.40;;;8.32;;
40745;SDS011;26454;51.164;4.488;2023-07-31T15:22:08;9.75;;;8.60;;
40745;SDS011;26454;51.164;4.488;2023-07-31T15:24:34;6.90;;;5.85;;
40745;SDS011;26454;51.164;4.488;2023-07-31T15:27:00;8.13;;;5.68;;
40745;SDS011;26454;51.164;4.488;2023-07-31T15:29:28;6.97;;;6.35;;
40745;SDS011;26454;51.164;4.488;2023-07-31T15:31:54;7.65;;;5.80;;
40745;SDS011;26454;51.164;4.488;2023-07-31T15:34:20;8.73;;;7.53;;
40745;SDS011;26454;51.164;4.488;2023-07-31T15:36:46;13.45;;;12.43;;